sensor_id;sensor_type;location;lat;lon;timestamp;P1;durP1;ratioP1;P2;durP2;ratioP2
71570;SDS011;59407;42.682;23.322;2022-12-24T00:01:21;59.88;;;31.45;;
71570;SDS011;59407;42.682;23.322;2022-12-24T00:03:47;58.83;;;31.30;;
71570;SDS011;59407;42.682;23.322;2022-12-24T00:06:17;56.35;;;29.63;;
71570;SDS011;59407;42.682;23.322;2022-12-24T00:08:47;58.43;;;30.07;;
71570;SDS011;59407;42.682;23.322;2022-12-24T00:11:13;61.90;;;30.40;;
71570;SDS011;59407;42.682;23.322;2022-12-24T00:13:39;62.57;;;28.33;;
71570;SDS011;59407;42.682;23.322;2022-12-24T00:16:04;58.30;;;29.23;;
71570;SDS011;59407;42.682;23.322;2022-12-24T00:18:30;67.85;;;30.85;;
71570;SDS011;59407;42.682;23.322;2022-12-24T00:20:55;57.13;;;31.13;;
71570;SDS011;59407;42.682;23.322;2022-12-24T00:23:22;61.70;;;30.97;;
71570;SDS011;59407;42.682;23.322;2022-12-24T00:25:48;55.65;;;28.70;;
71570;SDS011;59407;42.682;23.322;2022-12-24T00:28:13;61.23;;;29.37;;
71570;SDS011;59407;42.682;23.322;2022-12-24T00:30:40;55.95;;;30.17;;
71570;SDS011;59407;42.682;23.322;2022-12-24T00:33:06;55.25;;;28.50;;
71570;SDS011;59407;42.682;23.322;2022-12-24T00:35:37;52.63;;;28.55;;
71570;SDS011;59407;42.682;23.322;2022-12-24T00:38:04;49.65;;;26.30;;
71570;SDS011;59407;42.682;23.322;2022-12-24T00:40:30;48.63;;;26.10;;
71570;SDS011;59407;42.682;23.322;2022-12-24T00:42:56;47.65;;;24.77;;
71570;SDS011;59407;42.682;23.322;2022-12-24T00:45:22;49.35;;;25.67;;
71570;SDS011;59407;42.682;23.322;2022-12-24T00:47:47;48.08;;;25.55;;
71570;SDS011;59407;42.682;23.322;2022-12-24T00:50:13;53.10;;;24.23;;
71570;SDS011;59407;42.682;23.322;2022-12-24T00:52:40;47.20;;;26.20;;
71570;SDS011;59407;42.682;23.322;2022-12-24T00:55:05;49.50;;;27.50;;
71570;SDS011;59407;42.682;23.322;2022-12-24T00:57:31;45.75;;;25.13;;
71570;SDS011;59407;42.682;23.322;2022-12-24T00:59:57;47.27;;;25.57;;
71570;SDS011;59407;42.682;23.322;2022-12-24T01:02:24;48.60;;;24.80;;
71570;SDS011;59407;42.682;23.322;2022-12-24T01:04:49;50.78;;;25.85;;
71570;SDS011;59407;42.682;23.322;2022-12-24T01:07:33;51.30;;;24.95;;
71570;SDS011;59407;42.682;23.322;2022-12-24T01:09:58;51.53;;;25.77;;
71570;SDS011;59407;42.682;23.322;2022-12-24T01:12:24;49.17;;;24.67;;
71570;SDS011;59407;42.682;23.322;2022-12-24T01:14:50;49.67;;;28.43;;
71570;SDS011;59407;42.682;23.322;2022-12-24T01:17:15;46.90;;;25.30;;
71570;SDS011;59407;42.682;23.322;2022-12-24T01:19:41;53.13;;;26.07;;
71570;SDS011;59407;42.682;23.322;2022-12-24T01:22:06;51.28;;;26.52;;
71570;SDS011;59407;42.682;23.322;2022-12-24T01:27:15;59.95;;;30.58;;
71570;SDS011;59407;42.682;23.322;2022-12-24T01:29:41;50.27;;;25.97;;
71570;SDS011;59407;42.682;23.322;2022-12-24T01:32:06;49.83;;;26.73;;
71570;SDS011;59407;42.682;23.322;2022-12-24T01:34:32;50.30;;;25.60;;
71570;SDS011;59407;42.682;23.322;2022-12-24T01:36:57;45.00;;;24.33;;
71570;SDS011;59407;42.682;23.322;2022-12-24T01:39:23;47.38;;;24.83;;
71570;SDS011;59407;42.682;23.322;2022-12-24T01:41:48;50.33;;;26.30;;
71570;SDS011;59407;42.682;23.322;2022-12-24T01:44:33;51.15;;;26.70;;
71570;SDS011;59407;42.682;23.322;2022-12-24T01:47:32;60.20;;;29.92;;
71570;SDS011;59407;42.682;23.322;2022-12-24T01:50:02;50.75;;;26.25;;
71570;SDS011;59407;42.682;23.322;2022-12-24T01:52:29;52.70;;;26.08;;
71570;SDS011;59407;42.682;23.322;2022-12-24T01:54:57;55.78;;;27.83;;
71570;SDS011;59407;42.682;23.322;2022-12-24T01:57:27;50.60;;;26.20;;
71570;SDS011;59407;42.682;23.322;2022-12-24T01:59:56;48.85;;;28.25;;
71570;SDS011;59407;42.682;23.322;2022-12-24T02:02:24;46.53;;;26.70;;
71570;SDS011;59407;42.682;23.322;2022-12-24T02:07:29;55.15;;;26.48;;
71570;SDS011;59407;42.682;23.322;2022-12-24T02:09:57;57.67;;;26.27;;
71570;SDS011;59407;42.682;23.322;2022-12-24T02:12:24;45.35;;;24.55;;
71570;SDS011;59407;42.682;23.322;2022-12-24T02:14:50;55.47;;;28.38;;
71570;SDS011;59407;42.682;23.322;2022-12-24T02:17:17;50.80;;;26.13;;
71570;SDS011;59407;42.682;23.322;2022-12-24T02:20:38;49.47;;;25.50;;
71570;SDS011;59407;42.682;23.322;2022-12-24T02:25:31;44.55;;;24.35;;
71570;SDS011;59407;42.682;23.322;2022-12-24T02:30:42;51.28;;;26.42;;
71570;SDS011;59407;42.682;23.322;2022-12-24T02:33:46;47.63;;;25.02;;
71570;SDS011;59407;42.682;23.322;2022-12-24T02:36:19;47.20;;;26.10;;
71570;SDS011;59407;42.682;23.322;2022-12-24T02:38:51;52.45;;;28.13;;
71570;SDS011;59407;42.682;23.322;2022-12-24T02:41:23;58.90;;;29.75;;
71570;SDS011;59407;42.682;23.322;2022-12-24T02:43:50;50.35;;;26.98;;
71570;SDS011;59407;42.682;23.322;2022-12-24T02:46:18;52.67;;;29.00;;
71570;SDS011;59407;42.682;23.322;2022-12-24T02:48:46;67.90;;;32.33;;
71570;SDS011;59407;42.682;23.322;2022-12-24T02:51:12;49.95;;;27.42;;
71570;SDS011;59407;42.682;23.322;2022-12-24T02:53:37;57.75;;;28.98;;
71570;SDS011;59407;42.682;23.322;2022-12-24T02:56:23;62.20;;;30.77;;
71570;SDS011;59407;42.682;23.322;2022-12-24T02:59:39;59.03;;;29.77;;
71570;SDS011;59407;42.682;23.322;2022-12-24T03:07:28;66.75;;;35.55;;
71570;SDS011;59407;42.682;23.322;2022-12-24T03:10:30;74.50;;;35.92;;
71570;SDS011;59407;42.682;23.322;2022-12-24T03:13:14;160.38;;;75.25;;
71570;SDS011;59407;42.682;23.322;2022-12-24T03:15:41;165.70;;;82.15;;
71570;SDS011;59407;42.682;23.322;2022-12-24T03:18:07;127.70;;;58.75;;
71570;SDS011;59407;42.682;23.322;2022-12-24T03:20:39;98.68;;;49.65;;
71570;SDS011;59407;42.682;23.322;2022-12-24T03:23:25;105.32;;;51.13;;
71570;SDS011;59407;42.682;23.322;2022-12-24T03:25:50;107.87;;;53.30;;
71570;SDS011;59407;42.682;23.322;2022-12-24T03:28:16;97.67;;;48.23;;
71570;SDS011;59407;42.682;23.322;2022-12-24T03:30:44;92.80;;;44.83;;
71570;SDS011;59407;42.682;23.322;2022-12-24T03:33:11;86.22;;;42.17;;
71570;SDS011;59407;42.682;23.322;2022-12-24T03:35:37;95.65;;;45.42;;
71570;SDS011;59407;42.682;23.322;2022-12-24T03:38:02;89.83;;;45.43;;
71570;SDS011;59407;42.682;23.322;2022-12-24T03:40:28;108.80;;;48.22;;
71570;SDS011;59407;42.682;23.322;2022-12-24T03:42:54;96.80;;;45.90;;
71570;SDS011;59407;42.682;23.322;2022-12-24T03:45:19;125.90;;;57.00;;
71570;SDS011;59407;42.682;23.322;2022-12-24T03:47:44;101.88;;;49.50;;
71570;SDS011;59407;42.682;23.322;2022-12-24T03:50:10;123.33;;;56.03;;
71570;SDS011;59407;42.682;23.322;2022-12-24T03:52:35;119.13;;;54.10;;
71570;SDS011;59407;42.682;23.322;2022-12-24T03:55:01;114.93;;;52.72;;
71570;SDS011;59407;42.682;23.322;2022-12-24T03:57:27;128.60;;;57.40;;
71570;SDS011;59407;42.682;23.322;2022-12-24T03:59:53;125.55;;;59.05;;
71570;SDS011;59407;42.682;23.322;2022-12-24T04:02:18;106.10;;;49.63;;
71570;SDS011;59407;42.682;23.322;2022-12-24T04:04:44;106.53;;;48.77;;
71570;SDS011;59407;42.682;23.322;2022-12-24T04:07:09;96.70;;;49.30;;
71570;SDS011;59407;42.682;23.322;2022-12-24T04:09:35;122.80;;;56.22;;
71570;SDS011;59407;42.682;23.322;2022-12-24T04:12:00;129.87;;;60.13;;
71570;SDS011;59407;42.682;23.322;2022-12-24T04:14:26;114.30;;;53.05;;
71570;SDS011;59407;42.682;23.322;2022-12-24T04:16:51;114.47;;;56.80;;
71570;SDS011;59407;42.682;23.322;2022-12-24T04:19:17;121.93;;;56.00;;
71570;SDS011;59407;42.682;23.322;2022-12-24T04:21:42;123.83;;;57.10;;
71570;SDS011;59407;42.682;23.322;2022-12-24T04:24:07;113.37;;;55.60;;
71570;SDS011;59407;42.682;23.322;2022-12-24T04:26:33;113.85;;;53.38;;
71570;SDS011;59407;42.682;23.322;2022-12-24T04:28:58;88.00;;;43.67;;
71570;SDS011;59407;42.682;23.322;2022-12-24T04:31:24;73.27;;;37.90;;
71570;SDS011;59407;42.682;23.322;2022-12-24T04:33:50;79.67;;;40.47;;
71570;SDS011;59407;42.682;23.322;2022-12-24T04:36:16;74.55;;;37.17;;
71570;SDS011;59407;42.682;23.322;2022-12-24T04:38:43;78.53;;;41.53;;
71570;SDS011;59407;42.682;23.322;2022-12-24T04:41:13;78.50;;;39.45;;
71570;SDS011;59407;42.682;23.322;2022-12-24T04:43:38;89.93;;;42.08;;
71570;SDS011;59407;42.682;23.322;2022-12-24T04:46:08;90.78;;;43.90;;
71570;SDS011;59407;42.682;23.322;2022-12-24T04:48:35;95.32;;;43.70;;
71570;SDS011;59407;42.682;23.322;2022-12-24T04:51:01;91.72;;;44.72;;
71570;SDS011;59407;42.682;23.322;2022-12-24T04:53:28;83.38;;;43.10;;
71570;SDS011;59407;42.682;23.322;2022-12-24T04:55:54;72.55;;;38.80;;
71570;SDS011;59407;42.682;23.322;2022-12-24T04:58:19;73.80;;;36.53;;
71570;SDS011;59407;42.682;23.322;2022-12-24T05:00:44;66.83;;;34.60;;
71570;SDS011;59407;42.682;23.322;2022-12-24T05:03:10;66.77;;;34.00;;
71570;SDS011;59407;42.682;23.322;2022-12-24T05:05:37;69.80;;;36.25;;
71570;SDS011;59407;42.682;23.322;2022-12-24T05:08:02;82.03;;;39.07;;
71570;SDS011;59407;42.682;23.322;2022-12-24T05:10:27;80.40;;;37.97;;
71570;SDS011;59407;42.682;23.322;2022-12-24T05:12:53;83.05;;;37.88;;
71570;SDS011;59407;42.682;23.322;2022-12-24T05:15:19;118.60;;;62.27;;
71570;SDS011;59407;42.682;23.322;2022-12-24T05:17:44;124.10;;;62.28;;
71570;SDS011;59407;42.682;23.322;2022-12-24T05:20:10;137.18;;;71.20;;
71570;SDS011;59407;42.682;23.322;2022-12-24T05:22:35;120.03;;;59.03;;
71570;SDS011;59407;42.682;23.322;2022-12-24T05:25:19;121.57;;;55.40;;
71570;SDS011;59407;42.682;23.322;2022-12-24T05:28:03;131.48;;;62.42;;
71570;SDS011;59407;42.682;23.322;2022-12-24T05:30:30;135.60;;;65.05;;
71570;SDS011;59407;42.682;23.322;2022-12-24T05:32:56;146.13;;;67.97;;
71570;SDS011;59407;42.682;23.322;2022-12-24T05:35:21;127.57;;;60.83;;
71570;SDS011;59407;42.682;23.322;2022-12-24T05:37:47;121.03;;;59.33;;
71570;SDS011;59407;42.682;23.322;2022-12-24T05:40:12;117.30;;;56.03;;
71570;SDS011;59407;42.682;23.322;2022-12-24T05:42:37;122.10;;;57.37;;
71570;SDS011;59407;42.682;23.322;2022-12-24T05:45:03;121.40;;;57.17;;
71570;SDS011;59407;42.682;23.322;2022-12-24T05:47:29;125.97;;;57.90;;
71570;SDS011;59407;42.682;23.322;2022-12-24T05:49:54;121.30;;;53.50;;
71570;SDS011;59407;42.682;23.322;2022-12-24T05:52:19;112.93;;;53.03;;
71570;SDS011;59407;42.682;23.322;2022-12-24T05:54:45;112.85;;;53.38;;
71570;SDS011;59407;42.682;23.322;2022-12-24T05:57:11;102.00;;;53.85;;
71570;SDS011;59407;42.682;23.322;2022-12-24T05:59:37;107.05;;;51.92;;
71570;SDS011;59407;42.682;23.322;2022-12-24T06:02:02;111.30;;;52.97;;
71570;SDS011;59407;42.682;23.322;2022-12-24T06:04:28;107.90;;;50.97;;
71570;SDS011;59407;42.682;23.322;2022-12-24T06:06:53;106.33;;;50.80;;
71570;SDS011;59407;42.682;23.322;2022-12-24T06:09:18;110.93;;;51.40;;
71570;SDS011;59407;42.682;23.322;2022-12-24T06:11:44;117.60;;;52.47;;
71570;SDS011;59407;42.682;23.322;2022-12-24T06:14:09;104.87;;;51.17;;
71570;SDS011;59407;42.682;23.322;2022-12-24T06:16:35;104.23;;;51.67;;
71570;SDS011;59407;42.682;23.322;2022-12-24T06:19:00;96.43;;;48.42;;
71570;SDS011;59407;42.682;23.322;2022-12-24T06:21:25;88.73;;;45.73;;
71570;SDS011;59407;42.682;23.322;2022-12-24T06:23:51;102.88;;;47.75;;
71570;SDS011;59407;42.682;23.322;2022-12-24T06:26:18;101.20;;;50.10;;
71570;SDS011;59407;42.682;23.322;2022-12-24T06:28:47;104.90;;;49.88;;
71570;SDS011;59407;42.682;23.322;2022-12-24T06:31:14;111.00;;;51.30;;
71570;SDS011;59407;42.682;23.322;2022-12-24T06:33:41;108.22;;;48.15;;
71570;SDS011;59407;42.682;23.322;2022-12-24T06:36:07;98.33;;;49.20;;
71570;SDS011;59407;42.682;23.322;2022-12-24T06:38:34;92.68;;;46.00;;
71570;SDS011;59407;42.682;23.322;2022-12-24T06:40:59;101.13;;;50.00;;
71570;SDS011;59407;42.682;23.322;2022-12-24T06:43:30;103.85;;;50.22;;
71570;SDS011;59407;42.682;23.322;2022-12-24T06:45:55;107.77;;;50.90;;
71570;SDS011;59407;42.682;23.322;2022-12-24T06:48:21;108.35;;;51.17;;
71570;SDS011;59407;42.682;23.322;2022-12-24T06:50:46;110.83;;;54.77;;
71570;SDS011;59407;42.682;23.322;2022-12-24T06:53:12;103.43;;;50.03;;
71570;SDS011;59407;42.682;23.322;2022-12-24T06:55:37;107.00;;;53.10;;
71570;SDS011;59407;42.682;23.322;2022-12-24T06:58:03;117.60;;;55.65;;
71570;SDS011;59407;42.682;23.322;2022-12-24T07:00:29;105.63;;;55.43;;
71570;SDS011;59407;42.682;23.322;2022-12-24T07:02:54;118.50;;;58.10;;
71570;SDS011;59407;42.682;23.322;2022-12-24T07:05:20;120.97;;;57.35;;
71570;SDS011;59407;42.682;23.322;2022-12-24T07:07:45;118.13;;;58.90;;
71570;SDS011;59407;42.682;23.322;2022-12-24T07:10:14;108.70;;;54.60;;
71570;SDS011;59407;42.682;23.322;2022-12-24T07:12:41;108.90;;;54.50;;
71570;SDS011;59407;42.682;23.322;2022-12-24T07:15:07;97.43;;;49.00;;
71570;SDS011;59407;42.682;23.322;2022-12-24T07:17:33;90.50;;;46.70;;
71570;SDS011;59407;42.682;23.322;2022-12-24T07:19:58;86.13;;;44.50;;
71570;SDS011;59407;42.682;23.322;2022-12-24T07:22:24;92.85;;;44.67;;
71570;SDS011;59407;42.682;23.322;2022-12-24T07:24:50;92.47;;;44.90;;
71570;SDS011;59407;42.682;23.322;2022-12-24T07:27:15;92.13;;;46.17;;
71570;SDS011;59407;42.682;23.322;2022-12-24T07:29:40;90.97;;;44.47;;
71570;SDS011;59407;42.682;23.322;2022-12-24T07:32:07;89.97;;;46.63;;
71570;SDS011;59407;42.682;23.322;2022-12-24T07:34:33;90.32;;;47.72;;
71570;SDS011;59407;42.682;23.322;2022-12-24T07:36:58;87.57;;;44.23;;
71570;SDS011;59407;42.682;23.322;2022-12-24T07:39:24;85.17;;;46.10;;
71570;SDS011;59407;42.682;23.322;2022-12-24T07:41:49;83.20;;;44.87;;
71570;SDS011;59407;42.682;23.322;2022-12-24T07:44:15;88.07;;;46.77;;
71570;SDS011;59407;42.682;23.322;2022-12-24T07:46:41;87.72;;;45.10;;
71570;SDS011;59407;42.682;23.322;2022-12-24T07:49:07;74.35;;;40.88;;
71570;SDS011;59407;42.682;23.322;2022-12-24T07:51:34;84.07;;;45.67;;
71570;SDS011;59407;42.682;23.322;2022-12-24T07:54:00;78.50;;;43.57;;
71570;SDS011;59407;42.682;23.322;2022-12-24T07:56:25;80.20;;;44.30;;
71570;SDS011;59407;42.682;23.322;2022-12-24T07:58:51;82.35;;;45.13;;
71570;SDS011;59407;42.682;23.322;2022-12-24T08:01:17;97.77;;;50.27;;
71570;SDS011;59407;42.682;23.322;2022-12-24T08:03:44;83.40;;;43.85;;
71570;SDS011;59407;42.682;23.322;2022-12-24T08:06:09;81.43;;;43.33;;
71570;SDS011;59407;42.682;23.322;2022-12-24T08:08:35;77.90;;;43.10;;
71570;SDS011;59407;42.682;23.322;2022-12-24T08:11:02;95.35;;;47.65;;
71570;SDS011;59407;42.682;23.322;2022-12-24T08:13:29;91.85;;;49.30;;
71570;SDS011;59407;42.682;23.322;2022-12-24T08:15:55;76.70;;;42.07;;
71570;SDS011;59407;42.682;23.322;2022-12-24T08:18:21;78.82;;;41.38;;
71570;SDS011;59407;42.682;23.322;2022-12-24T08:20:46;78.77;;;43.10;;
71570;SDS011;59407;42.682;23.322;2022-12-24T08:23:12;86.83;;;45.50;;
71570;SDS011;59407;42.682;23.322;2022-12-24T08:25:40;85.88;;;46.72;;
71570;SDS011;59407;42.682;23.322;2022-12-24T08:28:08;89.13;;;48.57;;
71570;SDS011;59407;42.682;23.322;2022-12-24T08:30:33;82.03;;;47.35;;
71570;SDS011;59407;42.682;23.322;2022-12-24T08:32:59;86.93;;;45.60;;
71570;SDS011;59407;42.682;23.322;2022-12-24T08:35:24;78.00;;;43.20;;
71570;SDS011;59407;42.682;23.322;2022-12-24T08:37:50;81.20;;;46.13;;
71570;SDS011;59407;42.682;23.322;2022-12-24T08:40:15;85.20;;;42.83;;
71570;SDS011;59407;42.682;23.322;2022-12-24T08:42:41;69.30;;;37.53;;
71570;SDS011;59407;42.682;23.322;2022-12-24T08:45:06;78.40;;;42.47;;
71570;SDS011;59407;42.682;23.322;2022-12-24T08:47:35;80.40;;;44.63;;
71570;SDS011;59407;42.682;23.322;2022-12-24T08:50:01;86.43;;;45.03;;
71570;SDS011;59407;42.682;23.322;2022-12-24T08:52:26;83.60;;;45.97;;
71570;SDS011;59407;42.682;23.322;2022-12-24T08:54:52;70.23;;;36.87;;
71570;SDS011;59407;42.682;23.322;2022-12-24T08:57:17;63.67;;;37.43;;
71570;SDS011;59407;42.682;23.322;2022-12-24T08:59:44;71.35;;;39.53;;
71570;SDS011;59407;42.682;23.322;2022-12-24T09:02:10;72.53;;;39.03;;
71570;SDS011;59407;42.682;23.322;2022-12-24T09:04:38;62.97;;;35.93;;
71570;SDS011;59407;42.682;23.322;2022-12-24T09:07:07;72.15;;;36.97;;
71570;SDS011;59407;42.682;23.322;2022-12-24T09:09:33;60.35;;;33.63;;
71570;SDS011;59407;42.682;23.322;2022-12-24T09:11:58;59.70;;;35.33;;
71570;SDS011;59407;42.682;23.322;2022-12-24T09:14:24;57.63;;;31.20;;
71570;SDS011;59407;42.682;23.322;2022-12-24T09:16:49;59.53;;;31.10;;
71570;SDS011;59407;42.682;23.322;2022-12-24T09:19:15;48.80;;;27.20;;
71570;SDS011;59407;42.682;23.322;2022-12-24T09:21:41;50.33;;;27.52;;
71570;SDS011;59407;42.682;23.322;2022-12-24T09:24:06;49.37;;;27.87;;
71570;SDS011;59407;42.682;23.322;2022-12-24T09:26:32;49.57;;;27.87;;
71570;SDS011;59407;42.682;23.322;2022-12-24T09:28:58;68.40;;;36.50;;
71570;SDS011;59407;42.682;23.322;2022-12-24T09:31:24;70.97;;;42.47;;
71570;SDS011;59407;42.682;23.322;2022-12-24T09:33:50;94.75;;;52.35;;
71570;SDS011;59407;42.682;23.322;2022-12-24T09:36:16;106.68;;;55.92;;
71570;SDS011;59407;42.682;23.322;2022-12-24T09:38:42;123.35;;;65.47;;
71570;SDS011;59407;42.682;23.322;2022-12-24T09:43:38;122.68;;;67.18;;
71570;SDS011;59407;42.682;23.322;2022-12-24T09:46:05;123.97;;;69.13;;
71570;SDS011;59407;42.682;23.322;2022-12-24T09:48:48;121.20;;;68.65;;
71570;SDS011;59407;42.682;23.322;2022-12-24T09:56:45;99.93;;;57.17;;
71570;SDS011;59407;42.682;23.322;2022-12-24T09:59:54;107.17;;;55.80;;
71570;SDS011;59407;42.682;23.322;2022-12-24T10:02:07;106.28;;;55.67;;
71570;SDS011;59407;42.682;23.322;2022-12-24T10:04:34;105.78;;;57.20;;
71570;SDS011;59407;42.682;23.322;2022-12-24T10:12:40;100.53;;;55.30;;
71570;SDS011;59407;42.682;23.322;2022-12-24T10:21:13;102.55;;;56.38;;
71570;SDS011;59407;42.682;23.322;2022-12-24T10:23:57;90.35;;;50.40;;
71570;SDS011;59407;42.682;23.322;2022-12-24T10:29:12;78.85;;;43.55;;
71570;SDS011;59407;42.682;23.322;2022-12-24T10:31:49;76.00;;;38.57;;
71570;SDS011;59407;42.682;23.322;2022-12-24T10:34:22;70.78;;;38.88;;
71570;SDS011;59407;42.682;23.322;2022-12-24T10:36:49;69.78;;;40.50;;
71570;SDS011;59407;42.682;23.322;2022-12-24T10:39:18;68.03;;;39.60;;
71570;SDS011;59407;42.682;23.322;2022-12-24T10:41:46;65.13;;;35.92;;
71570;SDS011;59407;42.682;23.322;2022-12-24T10:44:14;72.90;;;38.73;;
71570;SDS011;59407;42.682;23.322;2022-12-24T10:46:41;68.88;;;38.95;;
71570;SDS011;59407;42.682;23.322;2022-12-24T10:49:15;68.28;;;38.92;;
71570;SDS011;59407;42.682;23.322;2022-12-24T10:51:45;63.25;;;36.10;;
71570;SDS011;59407;42.682;23.322;2022-12-24T10:54:24;64.82;;;35.00;;
71570;SDS011;59407;42.682;23.322;2022-12-24T10:56:54;62.53;;;34.50;;
71570;SDS011;59407;42.682;23.322;2022-12-24T10:59:21;61.53;;;37.30;;
71570;SDS011;59407;42.682;23.322;2022-12-24T11:04:53;63.53;;;35.05;;
71570;SDS011;59407;42.682;23.322;2022-12-24T11:07:21;61.67;;;34.88;;
71570;SDS011;59407;42.682;23.322;2022-12-24T11:09:55;65.40;;;35.67;;
71570;SDS011;59407;42.682;23.322;2022-12-24T11:12:25;61.00;;;33.67;;
71570;SDS011;59407;42.682;23.322;2022-12-24T11:17:28;57.20;;;32.97;;
71570;SDS011;59407;42.682;23.322;2022-12-24T11:19:54;66.82;;;34.03;;
71570;SDS011;59407;42.682;23.322;2022-12-24T11:22:21;68.43;;;35.13;;
71570;SDS011;59407;42.682;23.322;2022-12-24T11:25:03;61.25;;;33.75;;
71570;SDS011;59407;42.682;23.322;2022-12-24T11:27:38;66.13;;;36.50;;
71570;SDS011;59407;42.682;23.322;2022-12-24T11:32:40;63.83;;;34.13;;
71570;SDS011;59407;42.682;23.322;2022-12-24T11:35:15;63.03;;;35.30;;
71570;SDS011;59407;42.682;23.322;2022-12-24T11:37:42;57.53;;;35.15;;
71570;SDS011;59407;42.682;23.322;2022-12-24T11:43:03;56.97;;;32.72;;
71570;SDS011;59407;42.682;23.322;2022-12-24T11:45:30;53.27;;;31.90;;
71570;SDS011;59407;42.682;23.322;2022-12-24T11:47:57;42.13;;;24.52;;
71570;SDS011;59407;42.682;23.322;2022-12-24T11:50:27;44.42;;;26.40;;
71570;SDS011;59407;42.682;23.322;2022-12-24T11:58:01;51.80;;;31.10;;
71570;SDS011;59407;42.682;23.322;2022-12-24T12:00:29;46.92;;;28.73;;
71570;SDS011;59407;42.682;23.322;2022-12-24T12:02:56;51.27;;;30.33;;
71570;SDS011;59407;42.682;23.322;2022-12-24T12:05:25;48.17;;;29.67;;
71570;SDS011;59407;42.682;23.322;2022-12-24T12:07:54;45.40;;;29.27;;
71570;SDS011;59407;42.682;23.322;2022-12-24T12:10:31;46.00;;;28.60;;
71570;SDS011;59407;42.682;23.322;2022-12-24T12:13:02;49.85;;;29.80;;
71570;SDS011;59407;42.682;23.322;2022-12-24T12:15:34;47.90;;;28.90;;
71570;SDS011;59407;42.682;23.322;2022-12-24T12:18:04;45.80;;;28.77;;
71570;SDS011;59407;42.682;23.322;2022-12-24T12:20:50;43.92;;;27.30;;
71570;SDS011;59407;42.682;23.322;2022-12-24T12:36:55;54.47;;;33.08;;
71570;SDS011;59407;42.682;23.322;2022-12-24T12:39:21;56.20;;;31.05;;
71570;SDS011;59407;42.682;23.322;2022-12-24T12:49:40;55.72;;;32.33;;
71570;SDS011;59407;42.682;23.322;2022-12-24T12:57:40;63.67;;;33.80;;
71570;SDS011;59407;42.682;23.322;2022-12-24T13:00:11;61.13;;;35.13;;
71570;SDS011;59407;42.682;23.322;2022-12-24T13:05:36;70.93;;;39.58;;
71570;SDS011;59407;42.682;23.322;2022-12-24T13:10:52;78.83;;;42.97;;
71570;SDS011;59407;42.682;23.322;2022-12-24T13:21:30;78.88;;;43.22;;
71570;SDS011;59407;42.682;23.322;2022-12-24T13:29:52;78.10;;;45.53;;
71570;SDS011;59407;42.682;23.322;2022-12-24T13:32:35;84.45;;;45.65;;
71570;SDS011;59407;42.682;23.322;2022-12-24T13:35:03;82.63;;;44.75;;
71570;SDS011;59407;42.682;23.322;2022-12-24T13:37:47;79.63;;;44.07;;
71570;SDS011;59407;42.682;23.322;2022-12-24T13:40:15;80.07;;;44.63;;
71570;SDS011;59407;42.682;23.322;2022-12-24T13:47:56;71.80;;;40.78;;
71570;SDS011;59407;42.682;23.322;2022-12-24T13:53:20;83.25;;;41.95;;
71570;SDS011;59407;42.682;23.322;2022-12-24T13:55:54;77.60;;;43.08;;
71570;SDS011;59407;42.682;23.322;2022-12-24T13:58:22;75.60;;;41.47;;
71570;SDS011;59407;42.682;23.322;2022-12-24T14:03:32;74.53;;;42.40;;
71570;SDS011;59407;42.682;23.322;2022-12-24T14:06:04;74.65;;;41.10;;
71570;SDS011;59407;42.682;23.322;2022-12-24T14:08:33;75.25;;;41.28;;
71570;SDS011;59407;42.682;23.322;2022-12-24T14:11:02;75.80;;;40.15;;
71570;SDS011;59407;42.682;23.322;2022-12-24T14:16:02;73.40;;;41.67;;
71570;SDS011;59407;42.682;23.322;2022-12-24T14:18:30;73.65;;;41.53;;
71570;SDS011;59407;42.682;23.322;2022-12-24T14:20:58;75.88;;;40.58;;
71570;SDS011;59407;42.682;23.322;2022-12-24T14:25:52;75.85;;;41.80;;
71570;SDS011;59407;42.682;23.322;2022-12-24T14:28:18;78.60;;;43.60;;
71570;SDS011;59407;42.682;23.322;2022-12-24T14:30:57;80.10;;;44.85;;
71570;SDS011;59407;42.682;23.322;2022-12-24T14:33:31;80.17;;;45.47;;
71570;SDS011;59407;42.682;23.322;2022-12-24T14:35:58;88.50;;;46.80;;
71570;SDS011;59407;42.682;23.322;2022-12-24T14:38:23;84.15;;;46.65;;
71570;SDS011;59407;42.682;23.322;2022-12-24T14:40:52;87.87;;;47.20;;
71570;SDS011;59407;42.682;23.322;2022-12-24T14:59:43;69.05;;;38.33;;
71570;SDS011;59407;42.682;23.322;2022-12-24T15:05:23;51.30;;;27.48;;
71570;SDS011;59407;42.682;23.322;2022-12-24T15:07:59;29.67;;;17.73;;
71570;SDS011;59407;42.682;23.322;2022-12-24T15:13:03;31.90;;;17.33;;
71570;SDS011;59407;42.682;23.322;2022-12-24T15:15:31;34.60;;;18.27;;
71570;SDS011;59407;42.682;23.322;2022-12-24T15:17:58;34.40;;;18.77;;
71570;SDS011;59407;42.682;23.322;2022-12-24T15:20:24;28.40;;;16.27;;
71570;SDS011;59407;42.682;23.322;2022-12-24T15:22:53;28.13;;;15.90;;
71570;SDS011;59407;42.682;23.322;2022-12-24T15:25:27;28.15;;;16.77;;
71570;SDS011;59407;42.682;23.322;2022-12-24T15:27:54;26.30;;;15.30;;
71570;SDS011;59407;42.682;23.322;2022-12-24T15:30:21;27.43;;;15.93;;
71570;SDS011;59407;42.682;23.322;2022-12-24T15:32:51;30.15;;;16.65;;
71570;SDS011;59407;42.682;23.322;2022-12-24T15:37:56;33.05;;;18.48;;
71570;SDS011;59407;42.682;23.322;2022-12-24T15:40:23;31.40;;;18.50;;
71570;SDS011;59407;42.682;23.322;2022-12-24T15:42:49;31.83;;;19.50;;
71570;SDS011;59407;42.682;23.322;2022-12-24T15:47:51;35.13;;;19.52;;
71570;SDS011;59407;42.682;23.322;2022-12-24T15:53:07;34.50;;;18.80;;
71570;SDS011;59407;42.682;23.322;2022-12-24T15:55:40;34.03;;;18.88;;
71570;SDS011;59407;42.682;23.322;2022-12-24T16:03:28;27.13;;;16.15;;
71570;SDS011;59407;42.682;23.322;2022-12-24T16:06:00;31.17;;;16.13;;
71570;SDS011;59407;42.682;23.322;2022-12-24T16:08:28;24.17;;;13.30;;
71570;SDS011;59407;42.682;23.322;2022-12-24T16:13:59;20.20;;;13.30;;
71570;SDS011;59407;42.682;23.322;2022-12-24T16:16:34;24.80;;;14.52;;
71570;SDS011;59407;42.682;23.322;2022-12-24T16:19:02;26.15;;;14.85;;
71570;SDS011;59407;42.682;23.322;2022-12-24T16:21:30;25.70;;;14.50;;
71570;SDS011;59407;42.682;23.322;2022-12-24T16:24:01;29.95;;;16.83;;
71570;SDS011;59407;42.682;23.322;2022-12-24T16:26:30;30.20;;;16.43;;
71570;SDS011;59407;42.682;23.322;2022-12-24T16:28:56;29.83;;;15.75;;
71570;SDS011;59407;42.682;23.322;2022-12-24T16:31:29;27.17;;;14.30;;
71570;SDS011;59407;42.682;23.322;2022-12-24T16:33:57;29.77;;;15.45;;
71570;SDS011;59407;42.682;23.322;2022-12-24T16:36:23;23.20;;;11.77;;
71570;SDS011;59407;42.682;23.322;2022-12-24T16:38:53;23.17;;;11.27;;
71570;SDS011;59407;42.682;23.322;2022-12-24T16:41:37;15.68;;;8.68;;
71570;SDS011;59407;42.682;23.322;2022-12-24T16:44:21;15.50;;;9.63;;
71570;SDS011;59407;42.682;23.322;2022-12-24T16:46:46;15.88;;;9.45;;
71570;SDS011;59407;42.682;23.322;2022-12-24T16:49:15;15.50;;;10.47;;